Time;durP1;ratioP1;P1;durP2;ratioP2;P2;SDS_P1;SDS_P2;PMS_P1;PMS_P2;Temp;Humidity;BMP_temperature;BMP_pressure;BME280_temperature;BME280_humidity;BME280_pressure;Samples;Min_cycle;Max_cycle;Signal;HPM_P1;HPM_P2
2023/09/03 00:00:39;;;;;;;10.15;5.88;;;18.90;99.90;;;;;;4988171;28;20465;-84
2023/09/03 00:03:05;;;;;;;9.80;6.07;;;18.80;99.90;;;;;;4972538;28;20106;-86
2023/09/03 00:05:31;;;;;;;13.27;6.55;;;19.00;99.90;;;;;;4985877;28;20070;-85
2023/09/03 00:07:57;;;;;;;15.00;6.25;;;18.90;99.90;;;;;;4989967;28;20061;-82
2023/09/03 00:10:23;;;;;;;13.60;6.85;;;18.80;99.90;;;;;;4987524;28;20029;-82
2023/09/03 00:12:49;;;;;;;15.63;6.70;;;18.90;99.90;;;;;;4990168;28;20022;-86
2023/09/03 00:15:15;;;;;;;12.40;7.05;;;19.00;99.90;;;;;;4987408;28;20121;-87
2023/09/03 00:17:40;;;;;;;12.05;6.35;;;18.80;99.90;;;;;;4981530;28;20030;-84
2023/09/03 00:20:06;;;;;;;10.27;5.80;;;18.80;99.90;;;;;;4988622;28;20065;-86
2023/09/03 00:22:32;;;;;;;15.95;6.75;;;18.70;99.90;;;;;;4987779;28;20034;-84
2023/09/03 00:24:58;;;;;;;10.38;6.03;;;18.80;99.90;;;;;;4988741;28;20033;-87
2023/09/03 00:27:25;;;;;;;12.38;6.25;;;18.80;99.90;;;;;;4978713;28;20042;-85
2023/09/03 00:29:50;;;;;;;11.45;6.68;;;18.80;99.90;;;;;;4990128;28;20556;-85
2023/09/03 00:32:16;;;;;;;9.68;6.13;;;18.70;99.90;;;;;;4976207;28;20027;-86
2023/09/03 00:34:41;;;;;;;17.67;6.75;;;18.80;99.90;;;;;;4970294;28;20030;-86
2023/09/03 00:37:07;;;;;;;19.98;6.32;;;18.80;99.90;;;;;;4970217;28;20102;-86
2023/09/03 00:39:33;;;;;;;14.25;6.32;;;18.80;99.90;;;;;;4970333;28;20038;-85
2023/09/03 00:41:59;;;;;;;12.45;6.93;;;18.70;99.90;;;;;;4981759;28;20077;-85
2023/09/03 00:44:24;;;;;;;12.15;7.15;;;18.70;99.90;;;;;;4987050;28;20030;-82
2023/09/03 00:46:51;;;;;;;11.15;6.75;;;18.70;99.90;;;;;;4989710;28;20027;-86
2023/09/03 00:49:21;;;;;;;15.02;6.90;;;18.70;99.90;;;;;;4988693;28;20045;-84
2023/09/03 00:51:47;;;;;;;12.32;6.90;;;18.80;99.90;;;;;;4985329;28;20018;-87
2023/09/03 00:54:13;;;;;;;10.20;6.40;;;18.80;99.90;;;;;;4988606;28;20065;-86
2023/09/03 00:56:41;;;;;;;9.73;6.07;;;18.80;99.90;;;;;;4978332;28;20494;-86
2023/09/03 00:59:07;;;;;;;11.82;6.85;;;18.90;99.90;;;;;;4982656;28;20121;-84
2023/09/03 01:01:33;;;;;;;15.32;7.30;;;18.90;99.90;;;;;;4982640;28;20118;-84
2023/09/03 01:03:59;;;;;;;20.90;8.10;;;18.70;99.90;;;;;;4981590;28;20533;-87
2023/09/03 01:06:27;;;;;;;11.70;7.68;;;18.70;99.90;;;;;;4993368;28;20389;-84
2023/09/03 01:08:53;;;;;;;16.05;8.63;;;18.80;99.90;;;;;;4987756;28;20038;-86
2023/09/03 01:12:02;;;;;;;17.52;8.60;;;18.80;99.90;;;;;;4991643;28;20023;-86
2023/09/03 01:14:38;;;;;;;14.18;8.90;;;18.80;99.90;;;;;;4949908;28;20497;-84
2023/09/03 01:17:30;;;;;;;16.95;9.13;;;18.80;99.90;;;;;;4990624;28;20118;-86
2023/09/03 01:20:16;;;;;;;17.23;9.27;;;18.90;99.90;;;;;;4992888;28;20026;-86
2023/09/03 01:22:44;;;;;;;15.65;9.20;;;19.00;99.90;;;;;;4991171;28;20030;-84
2023/09/03 01:25:36;;;;;;;19.30;9.88;;;19.10;99.90;;;;;;4991031;28;20135;-85
2023/09/03 01:28:46;;;;;;;19.33;10.20;;;19.00;99.90;;;;;;4977032;28;20560;-84
2023/09/03 01:31:15;;;;;;;18.65;10.35;;;19.10;99.90;;;;;;4977432;28;20046;-84
2023/09/03 01:33:44;;;;;;;20.30;11.02;;;19.10;99.90;;;;;;4992101;28;20030;-86
2023/09/03 01:36:11;;;;;;;23.20;11.18;;;19.10;99.90;;;;;;4987475;28;20026;-84
2023/09/03 01:38:37;;;;;;;28.00;10.95;;;19.10;99.90;;;;;;4988181;28;20061;-83
2023/09/03 01:41:03;;;;;;;20.13;11.23;;;19.10;99.90;;;;;;4976857;28;20114;-85
2023/09/03 01:43:29;;;;;;;17.75;10.63;;;19.00;99.90;;;;;;4982281;28;20113;-83
2023/09/03 01:46:06;;;;;;;43.85;11.02;;;19.10;99.90;;;;;;4986043;28;20106;-85
2023/09/03 01:48:52;;;;;;;20.20;10.18;;;18.80;99.90;;;;;;4982483;28;20050;-84
2023/09/03 01:51:42;;;;;;;19.90;11.45;;;18.90;99.90;;;;;;4990964;28;20067;-86
2023/09/03 01:54:25;;;;;;;17.77;10.18;;;18.90;99.90;;;;;;5002070;28;20525;-85
2023/09/03 01:57:13;;;;;;;17.85;10.35;;;19.10;99.90;;;;;;4979139;28;20036;-86
2023/09/03 01:59:38;;;;;;;;;;;19.20;99.90;;;;;;4992034;28;20034;-84
2023/09/03 02:02:05;;;;;;;20.77;11.00;;;19.10;99.90;;;;;;4990801;28;19910;-84
2023/09/03 02:04:30;;;;;;;16.73;10.50;;;19.10;99.90;;;;;;4978592;28;20030;-84
2023/09/03 02:06:56;;;;;;;17.33;10.43;;;19.00;99.90;;;;;;4988747;28;20041;-82
2023/09/03 02:09:22;;;;;;;17.02;10.45;;;19.10;99.90;;;;;;4988051;28;20039;-85
2023/09/03 02:11:47;;;;;;;24.67;11.10;;;19.20;99.90;;;;;;4983117;28;20482;-86
2023/09/03 02:14:13;;;;;;;16.88;10.20;;;19.30;99.90;;;;;;4981625;28;20707;-86
2023/09/03 02:16:39;;;;;;;18.52;10.98;;;19.40;99.90;;;;;;4982988;28;20089;-82
2023/09/03 02:19:04;;;;;;;20.85;11.32;;;19.40;99.90;;;;;;4981997;28;20061;-83
2023/09/03 02:21:30;;;;;;;17.23;10.98;;;19.40;99.90;;;;;;4982497;28;20045;-82
2023/09/03 02:23:56;;;;;;;19.23;10.98;;;19.50;99.90;;;;;;4979016;28;20109;-87
2023/09/03 02:26:22;;;;;;;25.85;10.75;;;19.50;99.90;;;;;;4988189;28;20030;-85
2023/09/03 02:28:47;;;;;;;16.08;10.60;;;19.50;99.90;;;;;;4991753;28;20073;-83
2023/09/03 02:31:13;;;;;;;17.85;10.32;;;19.50;99.90;;;;;;4990551;28;20026;-85
2023/09/03 02:33:38;;;;;;;21.77;11.32;;;19.60;99.90;;;;;;4991682;28;20045;-82
2023/09/03 02:36:04;;;;;;;16.90;10.68;;;19.40;99.90;;;;;;4990196;28;20496;-82
2023/09/03 02:38:30;;;;;;;18.02;10.80;;;19.50;99.90;;;;;;4992277;28;20030;-85
2023/09/03 02:40:55;;;;;;;16.77;10.52;;;19.60;99.90;;;;;;4987214;28;20509;-83
2023/09/03 02:43:21;;;;;;;16.75;10.80;;;19.70;99.90;;;;;;4981347;28;20429;-84
2023/09/03 02:45:47;;;;;;;16.85;11.45;;;19.80;99.90;;;;;;4981409;28;20438;-86
2023/09/03 02:48:12;;;;;;;17.02;11.60;;;19.80;99.90;;;;;;4985881;28;20041;-86
2023/09/03 02:50:38;;;;;;;17.05;10.73;;;19.80;99.90;;;;;;4992698;28;20035;-85
2023/09/03 02:53:07;;;;;;;16.35;11.15;;;19.80;99.90;;;;;;4977902;28;20022;-84
2023/09/03 02:55:33;;;;;;;16.30;10.90;;;19.80;99.90;;;;;;4989404;28;20124;-83
2023/09/03 02:57:59;;;;;;;15.30;10.05;;;19.90;99.90;;;;;;4996343;28;20485;-83
2023/09/03 03:00:25;;;;;;;16.02;10.13;;;19.90;99.90;;;;;;4971917;28;20375;-87
2023/09/03 03:02:50;;;;;;;16.58;10.77;;;19.90;99.90;;;;;;4971868;28;20042;-82
2023/09/03 03:05:16;;;;;;;17.02;10.73;;;19.90;99.90;;;;;;4971990;28;20500;-83
2023/09/03 03:07:42;;;;;;;14.20;9.93;;;19.90;99.90;;;;;;4970519;28;20035;-84
2023/09/03 03:10:09;;;;;;;15.93;11.13;;;19.90;99.90;;;;;;4979389;28;20489;-82
2023/09/03 03:12:35;;;;;;;16.50;10.85;;;19.90;99.90;;;;;;4971642;28;20031;-82
2023/09/03 03:15:00;;;;;;;14.98;10.15;;;19.90;99.90;;;;;;4986358;28;20030;-83
2023/09/03 03:17:26;;;;;;;17.05;11.07;;;20.00;99.90;;;;;;4989007;28;20087;-83
2023/09/03 03:19:51;;;;;;;18.42;11.30;;;20.00;99.90;;;;;;4991027;28;20034;-83
2023/09/03 03:22:17;;;;;;;19.52;11.45;;;19.90;99.90;;;;;;4990636;28;20033;-84
2023/09/03 03:24:43;;;;;;;20.10;11.57;;;19.90;99.90;;;;;;4990131;28;20037;-86
2023/09/03 03:27:09;;;;;;;17.85;11.05;;;19.90;99.90;;;;;;4986897;28;20032;-87
2023/09/03 03:29:35;;;;;;;23.83;11.93;;;19.90;99.90;;;;;;4971283;28;20138;-85
2023/09/03 03:32:00;;;;;;;20.48;11.70;;;19.80;99.90;;;;;;4986022;28;20106;-86
2023/09/03 03:34:26;;;;;;;31.40;11.50;;;19.80;99.90;;;;;;4990680;28;20037;-87
2023/09/03 03:36:53;;;;;;;77.90;11.80;;;19.70;99.90;;;;;;4990846;28;20018;-87
2023/09/03 03:39:19;;;;;;;48.97;11.50;;;19.60;99.90;;;;;;4989256;28;20030;-87
2023/09/03 03:41:45;;;;;;;33.17;11.55;;;19.50;99.90;;;;;;4990518;28;20018;-87
2023/09/03 03:44:11;;;;;;;81.00;11.27;;;19.40;99.90;;;;;;4990466;28;20034;-86
2023/09/03 03:46:37;;;;;;;23.08;10.77;;;19.50;99.90;;;;;;4988621;28;20018;-87
2023/09/03 03:49:03;;;;;;;65.30;11.80;;;19.40;99.90;;;;;;4981327;28;20046;-86
2023/09/03 03:51:29;;;;;;;38.53;11.15;;;19.40;99.90;;;;;;4970676;28;20019;-84
2023/09/03 03:53:55;;;;;;;60.30;10.30;;;19.20;99.90;;;;;;4970940;28;20034;-87
2023/09/03 03:56:21;;;;;;;55.75;11.27;;;19.20;99.90;;;;;;4970762;28;20027;-87
2023/09/03 03:58:47;;;;;;;28.05;10.18;;;19.10;99.90;;;;;;4970797;28;20026;-89
2023/09/03 04:01:25;;;;;;;37.20;11.20;;;19.20;99.90;;;;;;4987872;28;20493;-86
2023/09/03 04:03:52;;;;;;;60.90;11.60;;;19.20;99.90;;;;;;4988472;28;20030;-87
2023/09/03 04:06:18;;;;;;;82.03;15.13;;;19.20;99.90;;;;;;4988685;28;20038;-88
2023/09/03 04:08:44;;;;;;;26.73;9.82;;;19.10;99.90;;;;;;4989658;28;20046;-84
2023/09/03 04:11:12;;;;;;;41.22;9.75;;;19.10;99.90;;;;;;4988371;28;20022;-83
2023/09/03 04:13:39;;;;;;;21.88;9.52;;;19.20;99.90;;;;;;4977492;28;20069;-84
2023/09/03 04:16:14;;;;;;;39.85;10.13;;;19.10;99.90;;;;;;4970020;28;20034;-83
2023/09/03 04:18:40;;;;;;;18.20;9.68;;;19.10;99.90;;;;;;4970798;28;20109;-85
2023/09/03 04:21:07;;;;;;;17.98;9.55;;;19.20;99.90;;;;;;4971419;28;20127;-85
2023/09/03 04:23:33;;;;;;;15.57;9.30;;;19.20;99.90;;;;;;4971718;28;20529;-83
2023/09/03 04:25:58;;;;;;;12.82;9.13;;;19.10;99.90;;;;;;4970325;28;20111;-83
2023/09/03 04:28:24;;;;;;;11.35;8.80;;;19.10;99.90;;;;;;4970428;28;20027;-85
2023/09/03 04:31:01;;;;;;;33.10;9.60;;;19.20;99.90;;;;;;4970246;28;20034;-85
2023/09/03 04:33:27;;;;;;;11.95;8.90;;;19.20;99.90;;;;;;4970520;28;20208;-85
2023/09/03 04:36:00;;;;;;;11.63;8.80;;;19.10;99.90;;;;;;4970559;28;20113;-83
2023/09/03 04:38:27;;;;;;;27.65;8.77;;;19.20;99.90;;;;;;4971301;28;20114;-86
2023/09/03 04:40:53;;;;;;;19.45;8.55;;;19.20;99.90;;;;;;4982841;28;20452;-86
2023/09/03 04:43:19;;;;;;;13.55;8.95;;;19.20;99.90;;;;;;4970365;28;20026;-86
2023/09/03 04:45:53;;;;;;;15.30;9.02;;;19.10;99.90;;;;;;4973479;28;20018;-85
2023/09/03 04:48:21;;;;;;;11.10;8.45;;;19.10;99.90;;;;;;5008908;28;20581;-85
2023/09/03 04:50:46;;;;;;;32.72;9.27;;;19.20;99.90;;;;;;4997974;28;20053;-85
2023/09/03 04:53:12;;;;;;;27.58;9.45;;;19.10;99.90;;;;;;4989644;28;20497;-85
2023/09/03 04:55:39;;;;;;;28.83;8.82;;;19.00;99.90;;;;;;4988742;28;20026;-82
2023/09/03 04:58:05;;;;;;;9.75;8.35;;;18.90;99.90;;;;;;4989976;28;20532;-84
2023/09/03 05:00:31;;;;;;;10.32;8.07;;;18.90;99.90;;;;;;4970147;28;20023;-86
2023/09/03 05:03:01;;;;;;;26.00;9.45;;;18.90;99.90;;;;;;4970171;28;20027;-82
2023/09/03 05:05:26;;;;;;;29.08;9.32;;;18.90;99.90;;;;;;4970165;28;20483;-83
2023/09/03 05:07:52;;;;;;;25.60;8.93;;;18.90;99.90;;;;;;4968725;28;20085;-83
2023/09/03 05:10:18;;;;;;;41.47;9.13;;;19.00;99.90;;;;;;4970348;28;20070;-82
2023/09/03 05:12:44;;;;;;;13.85;8.70;;;19.00;99.90;;;;;;4987495;28;20025;-82
2023/09/03 05:15:11;;;;;;;33.10;9.82;;;19.00;99.90;;;;;;4974933;28;20029;-82
2023/09/03 05:17:38;;;;;;;22.23;9.02;;;18.90;99.90;;;;;;4979961;28;20026;-86
2023/09/03 05:20:04;;;;;;;20.80;9.10;;;18.90;99.90;;;;;;4988520;28;20081;-85
2023/09/03 05:22:30;;;;;;;23.38;9.48;;;18.90;99.90;;;;;;4987468;28;20027;-83
2023/09/03 05:24:55;;;;;;;33.88;9.50;;;18.90;99.90;;;;;;4971005;28;20038;-82
2023/09/03 05:27:21;;;;;;;13.77;8.35;;;18.70;99.90;;;;;;4971627;28;20529;-83
2023/09/03 05:29:47;;;;;;;12.45;8.15;;;18.80;99.90;;;;;;4984627;28;20125;-84
2023/09/03 05:32:13;;;;;;;74.30;9.55;;;18.90;99.90;;;;;;4989189;28;20069;-85
2023/09/03 05:34:39;;;;;;;27.40;8.55;;;18.90;99.90;;;;;;4989055;28;20054;-84
2023/09/03 05:37:04;;;;;;;34.45;9.23;;;18.80;99.90;;;;;;4989458;28;20379;-86
2023/09/03 05:39:31;;;;;;;25.10;8.50;;;18.90;99.90;;;;;;4987614;28;20423;-85
2023/09/03 05:41:56;;;;;;;46.60;9.48;;;18.80;99.90;;;;;;4979869;28;20066;-84
2023/09/03 05:44:22;;;;;;;30.00;8.77;;;18.70;99.90;;;;;;4984318;28;20034;-87
2023/09/03 05:46:47;;;;;;;20.88;8.75;;;18.80;99.90;;;;;;4970028;28;20383;-87
2023/09/03 05:49:13;;;;;;;64.78;9.40;;;18.80;99.90;;;;;;4971106;28;20031;-87
2023/09/03 05:51:40;;;;;;;23.80;9.02;;;18.80;99.90;;;;;;4977657;28;20062;-82
2023/09/03 05:54:06;;;;;;;27.08;9.48;;;18.90;99.90;;;;;;4980210;28;20074;-88
2023/09/03 05:56:34;;;;;;;46.30;9.57;;;18.80;99.90;;;;;;4973267;28;20415;-86
2023/09/03 05:59:05;;;;;;;39.10;9.63;;;18.80;99.90;;;;;;4990054;28;20027;-87
2023/09/03 06:01:31;;;;;;;24.33;9.00;;;18.80;99.90;;;;;;4992294;28;20113;-85
2023/09/03 06:03:57;;;;;;;26.77;9.55;;;18.80;99.90;;;;;;4992627;28;20482;-86
2023/09/03 06:06:22;;;;;;;17.23;9.23;;;18.90;99.90;;;;;;4989876;28;20049;-85
2023/09/03 06:08:48;;;;;;;16.88;9.93;;;19.00;99.90;;;;;;4989936;28;20121;-84
2023/09/03 06:11:13;;;;;;;22.17;9.50;;;19.00;99.90;;;;;;4982611;28;20474;-86
2023/09/03 06:13:39;;;;;;;32.90;9.45;;;19.10;99.90;;;;;;4973848;28;20027;-87
2023/09/03 06:16:05;;;;;;;22.63;9.32;;;19.10;99.90;;;;;;4972921;28;20023;-87
2023/09/03 06:18:30;;;;;;;12.07;8.95;;;19.10;99.90;;;;;;4975294;28;20076;-84
2023/09/03 06:20:56;;;;;;;18.08;9.63;;;19.10;99.90;;;;;;4977585;28;20046;-86
2023/09/03 06:23:22;;;;;;;23.17;9.65;;;19.20;99.90;;;;;;4989529;28;20394;-84
2023/09/03 06:25:48;;;;;;;22.73;9.90;;;19.20;99.90;;;;;;4991068;28;20046;-88
2023/09/03 06:28:15;;;;;;;20.35;9.43;;;19.30;99.90;;;;;;4988252;28;20042;-88
2023/09/03 06:30:41;;;;;;;51.90;10.43;;;19.30;99.90;;;;;;4993162;28;20034;-87
2023/09/03 06:33:07;;;;;;;23.20;9.50;;;19.30;99.90;;;;;;4991862;28;20045;-87
2023/09/03 06:35:32;;;;;;;13.95;9.40;;;19.30;99.90;;;;;;4974995;28;20478;-87
2023/09/03 06:37:59;;;;;;;12.73;8.98;;;19.40;99.90;;;;;;4972257;28;20129;-86
2023/09/03 06:40:25;;;;;;;14.07;9.35;;;19.40;99.90;;;;;;4969957;28;20026;-85
2023/09/03 06:42:51;;;;;;;40.30;9.90;;;19.30;99.90;;;;;;4981235;28;20105;-85
2023/09/03 06:45:17;;;;;;;27.83;9.40;;;19.40;99.90;;;;;;4990535;28;20109;-87
2023/09/03 06:47:44;;;;;;;30.25;10.30;;;19.60;99.90;;;;;;4990937;28;20027;-87
2023/09/03 06:50:10;;;;;;;30.05;9.05;;;19.50;99.90;;;;;;4992065;28;20041;-87
2023/09/03 06:52:35;;;;;;;15.60;9.38;;;19.50;99.90;;;;;;4992382;28;20034;-86
2023/09/03 06:55:01;;;;;;;21.90;9.93;;;19.50;99.90;;;;;;4986799;28;20021;-89
2023/09/03 06:57:27;;;;;;;40.42;9.45;;;19.40;99.90;;;;;;4995959;28;20449;-87
2023/09/03 06:59:53;;;;;;;18.58;8.65;;;19.40;99.90;;;;;;5001822;28;20486;-86
2023/09/03 07:02:19;;;;;;;24.70;9.00;;;19.30;99.90;;;;;;4988002;28;20030;-87
2023/09/03 07:04:44;;;;;;;13.02;9.20;;;19.50;99.90;;;;;;4982323;28;20060;-85
2023/09/03 07:07:10;;;;;;;11.90;8.55;;;19.60;99.90;;;;;;4995560;28;20033;-88
2023/09/03 07:09:35;;;;;;;16.88;9.45;;;19.70;99.90;;;;;;4986859;28;21937;-88
2023/09/03 07:12:02;;;;;;;26.90;9.48;;;19.70;99.90;;;;;;4991022;28;20022;-86
2023/09/03 07:14:32;;;;;;;21.85;9.18;;;19.70;99.90;;;;;;4988579;28;20165;-85
2023/09/03 07:16:57;;;;;;;12.73;9.00;;;19.70;99.90;;;;;;4992853;28;20022;-90
2023/09/03 07:19:23;;;;;;;11.95;8.73;;;19.80;99.90;;;;;;5010655;28;20029;-85
2023/09/03 07:21:48;;;;;;;17.65;9.05;;;19.90;99.90;;;;;;4999465;28;20026;-86
2023/09/03 07:24:15;;;;;;;18.80;9.52;;;19.90;99.90;;;;;;4991314;28;20026;-86
2023/09/03 07:26:41;;;;;;;12.32;9.00;;;19.90;99.90;;;;;;4991886;28;20034;-86
2023/09/03 07:29:06;;;;;;;16.23;9.15;;;19.90;99.90;;;;;;4990774;28;20114;-84
2023/09/03 07:31:32;;;;;;;13.13;9.30;;;19.90;99.90;;;;;;4991207;28;20129;-90
2023/09/03 07:33:59;;;;;;;15.40;9.38;;;19.80;99.90;;;;;;4982084;28;20090;-89
2023/09/03 07:36:25;;;;;;;12.70;9.38;;;19.80;99.90;;;;;;4972566;28;20558;-88
2023/09/03 07:38:51;;;;;;;13.93;8.98;;;19.90;99.90;;;;;;4972212;28;20023;-90
2023/09/03 07:41:16;;;;;;;13.68;9.18;;;20.00;99.90;;;;;;4971689;28;20035;-89
2023/09/03 07:43:42;;;;;;;15.38;8.90;;;20.00;99.90;;;;;;4972745;28;20070;-89
2023/09/03 07:46:08;;;;;;;14.43;8.13;;;20.10;99.90;;;;;;4972295;28;20042;-91
2023/09/03 07:48:34;;;;;;;14.20;8.73;;;20.10;99.90;;;;;;4973080;28;20058;-92
2023/09/03 07:51:00;;;;;;;13.45;8.90;;;20.20;99.90;;;;;;4973583;28;20099;-93
2023/09/03 07:53:26;;;;;;;18.55;9.00;;;20.50;99.90;;;;;;4971968;28;20022;-90
2023/09/03 07:55:51;;;;;;;13.48;8.65;;;20.30;99.90;;;;;;4974213;28;20061;-90
2023/09/03 07:58:17;;;;;;;16.83;9.30;;;20.30;99.90;;;;;;4972155;28;20038;-88
2023/09/03 08:00:44;;;;;;;12.02;9.35;;;20.30;99.90;;;;;;4976028;28;20074;-88
2023/09/03 08:03:10;;;;;;;13.10;8.40;;;20.40;99.90;;;;;;4980512;28;20026;-89
2023/09/03 08:05:35;;;;;;;10.38;7.88;;;20.50;99.90;;;;;;4989615;28;20172;-88
2023/09/03 08:08:01;;;;;;;10.18;8.13;;;20.50;99.90;;;;;;4989889;28;20080;-91
2023/09/03 08:10:26;;;;;;;11.02;8.00;;;20.40;99.90;;;;;;4985316;28;20030;-90
2023/09/03 08:12:52;;;;;;;10.50;7.93;;;20.50;99.90;;;;;;4976162;28;20030;-92
2023/09/03 08:15:18;;;;;;;9.75;7.70;;;20.70;99.90;;;;;;4991531;28;20030;-88
2023/09/03 08:17:44;;;;;;;15.02;8.00;;;20.80;99.90;;;;;;4990261;28;20042;-88
2023/09/03 08:20:12;;;;;;;10.07;7.70;;;20.70;99.90;;;;;;4989659;28;20482;-92
2023/09/03 08:22:40;;;;;;;;;;;20.70;99.90;;;;;;4989808;28;20030;-91
2023/09/03 08:25:06;;;;;;;9.25;6.45;;;20.90;99.90;;;;;;4990562;28;19928;-90
2023/09/03 08:27:32;;;;;;;9.10;6.25;;;;;;;;;;4990768;28;20085;-92
2023/09/03 08:29:58;;;;;;;10.02;6.32;;;21.20;99.90;;;;;;4995872;28;20040;-94
2023/09/03 08:32:24;;;;;;;8.55;6.32;;;21.50;99.90;;;;;;4996886;28;20488;-89
2023/09/03 08:34:51;;;;;;;7.10;4.88;;;21.40;99.90;;;;;;4991024;28;20031;-91
2023/09/03 08:37:20;;;;;;;6.55;5.20;;;21.60;99.90;;;;;;4990692;28;20025;-92
2023/09/03 08:39:46;;;;;;;6.50;4.63;;;21.80;99.90;;;;;;4984924;28;20162;-88
2023/09/03 08:42:14;;;;;;;5.55;4.75;;;21.80;99.90;;;;;;4985620;28;20109;-87
2023/09/03 08:44:49;;;;;;;7.57;3.95;;;21.80;99.90;;;;;;5009502;28;20489;-90
2023/09/03 08:47:17;;;;;;;6.68;4.05;;;22.00;99.90;;;;;;4987325;28;20066;-88
2023/09/03 08:49:44;;;;;;;5.82;3.53;;;22.10;99.90;;;;;;4968888;28;20039;-90
2023/09/03 08:52:11;;;;;;;5.30;3.65;;;22.30;99.90;;;;;;4969192;28;20027;-88
2023/09/03 08:54:38;;;;;;;3.90;3.20;;;22.40;99.90;;;;;;4979598;28;20085;-85
2023/09/03 08:57:09;;;;;;;5.15;2.95;;;22.50;99.90;;;;;;4984815;28;20034;-86
2023/09/03 08:59:34;;;;;;;4.00;3.22;;;22.50;99.90;;;;;;4988999;28;20394;-87
2023/09/03 09:02:01;;;;;;;4.78;2.97;;;22.70;99.90;;;;;;4989883;28;20478;-91
2023/09/03 09:04:30;;;;;;;5.03;3.50;;;22.50;99.90;;;;;;4988171;28;20027;-86
2023/09/03 09:06:58;;;;;;;3.83;2.80;;;22.70;99.90;;;;;;4989431;28;20110;-86
2023/09/03 09:09:26;;;;;;;3.33;3.00;;;22.90;99.90;;;;;;4984644;28;20047;-87
2023/09/03 09:12:18;;;;;;;3.33;2.92;;;23.00;99.90;;;;;;4970312;28;20046;-87
2023/09/03 09:14:59;;;;;;;5.22;2.78;;;23.10;99.90;;;;;;4973716;28;20053;-86
2023/09/03 09:17:25;;;;;;;3.05;2.65;;;22.90;99.90;;;;;;4968487;28;20022;-87
2023/09/03 09:19:51;;;;;;;3.90;3.25;;;22.90;99.90;;;;;;4980228;28;20062;-86
2023/09/03 09:22:17;;;;;;;3.83;2.60;;;22.70;99.90;;;;;;5005341;28;20116;-86
2023/09/03 09:24:44;;;;;;;3.67;2.85;;;23.00;99.90;;;;;;4991410;28;20073;-86
2023/09/03 09:27:17;;;;;;;3.42;2.50;;;23.00;99.90;;;;;;4993084;28;20035;-86
2023/09/03 09:29:43;;;;;;;3.95;2.70;;;22.90;99.90;;;;;;4993035;28;20046;-86
2023/09/03 09:32:23;;;;;;;4.65;2.45;;;22.90;99.90;;;;;;4993050;28;20094;-86
2023/09/03 09:34:49;;;;;;;3.08;2.60;;;22.80;99.90;;;;;;4999260;28;20402;-86
2023/09/03 09:37:15;;;;;;;4.00;2.72;;;22.60;99.90;;;;;;4990976;28;20030;-86
2023/09/03 09:39:49;;;;;;;2.78;2.47;;;22.80;99.90;;;;;;4991478;28;20034;-86
2023/09/03 09:42:21;;;;;;;5.07;2.60;;;23.10;99.90;;;;;;4991418;28;20038;-86
2023/09/03 09:44:52;;;;;;;2.70;2.50;;;23.40;99.90;;;;;;4993717;28;20471;-87
2023/09/03 09:47:19;;;;;;;3.55;2.50;;;23.50;99.90;;;;;;4993637;28;20097;-87
2023/09/03 09:49:48;;;;;;;2.50;2.22;;;23.70;99.90;;;;;;4990226;28;20414;-87
2023/09/03 09:52:17;;;;;;;3.10;2.45;;;23.70;99.90;;;;;;4992490;28;20433;-86
2023/09/03 09:54:44;;;;;;;4.80;2.50;;;23.80;99.90;;;;;;4988341;28;20034;-86
2023/09/03 09:57:16;;;;;;;4.57;2.45;;;24.10;99.90;;;;;;4989800;28;20150;-86
2023/09/03 09:59:43;;;;;;;5.40;3.40;;;24.20;99.90;;;;;;4992589;28;20026;-85
2023/09/03 10:02:16;;;;;;;2.35;2.03;;;24.40;99.90;;;;;;4992495;28;20397;-84
2023/09/03 10:04:46;;;;;;;3.47;2.25;;;24.30;99.90;;;;;;4992186;28;20616;-86
2023/09/03 10:07:12;;;;;;;5.07;2.50;;;24.40;99.90;;;;;;4990356;28;20601;-85
2023/09/03 10:09:39;;;;;;;3.38;2.40;;;24.50;99.90;;;;;;4991195;28;20497;-86
2023/09/03 10:12:07;;;;;;;3.37;2.27;;;24.40;99.90;;;;;;4991480;28;20088;-85
2023/09/03 10:14:33;;;;;;;6.97;2.30;;;24.50;99.90;;;;;;4992340;28;20036;-85
2023/09/03 10:17:06;;;;;;;2.78;2.33;;;24.60;99.90;;;;;;4992161;28;20058;-85
2023/09/03 10:19:47;;;;;;;2.60;2.40;;;24.60;99.90;;;;;;4992011;28;20494;-85
2023/09/03 10:22:15;;;;;;;3.92;2.30;;;24.80;99.90;;;;;;4992160;28;20350;-85
2023/09/03 10:24:50;;;;;;;4.90;2.53;;;24.80;99.90;;;;;;4991869;28;20509;-85
2023/09/03 10:27:21;;;;;;;5.03;2.28;;;24.80;99.90;;;;;;4975816;28;20023;-85
2023/09/03 10:29:48;;;;;;;4.18;2.40;;;24.80;99.90;;;;;;4972441;28;20058;-85
2023/09/03 10:32:15;;;;;;;2.72;2.50;;;24.80;99.90;;;;;;4972453;28;20042;-88
2023/09/03 10:34:42;;;;;;;2.65;2.30;;;;;;;;;;4971995;28;20046;-85
2023/09/03 10:37:13;;;;;;;4.00;2.30;;;25.30;99.90;;;;;;4972367;28;20035;-85
2023/09/03 10:39:41;;;;;;;4.32;2.70;;;25.30;99.90;;;;;;4972314;28;20027;-85
2023/09/03 10:42:16;;;;;;;3.08;2.25;;;25.20;99.90;;;;;;4972422;28;20050;-85
2023/09/03 10:44:52;;;;;;;2.60;2.40;;;25.30;99.90;;;;;;4972368;28;20033;-85
2023/09/03 10:47:18;;;;;;;2.50;2.30;;;25.40;99.90;;;;;;4982582;28;20105;-85
2023/09/03 10:49:46;;;;;;;2.80;2.10;;;25.70;99.90;;;;;;4983651;28;20390;-85
2023/09/03 10:52:27;;;;;;;3.58;2.50;;;25.80;99.90;;;;;;4991387;28;20080;-85
2023/09/03 10:55:13;;;;;;;2.97;2.30;;;26.00;99.90;;;;;;4991207;28;20469;-85
2023/09/03 10:57:39;;;;;;;4.82;2.42;;;25.60;99.90;;;;;;4982209;28;20046;-84
2023/09/03 11:00:05;;;;;;;4.28;2.40;;;25.70;99.90;;;;;;4989178;28;20487;-84
2023/09/03 11:02:32;;;;;;;2.63;2.40;;;25.70;99.90;;;;;;4991292;28;20025;-84
2023/09/03 11:05:12;;;;;;;9.55;2.63;;;25.80;99.90;;;;;;4991282;28;20081;-84
2023/09/03 11:07:39;;;;;;;4.93;2.50;;;25.90;99.90;;;;;;4989401;28;20026;-84
2023/09/03 11:10:25;;;;;;;3.00;2.50;;;26.00;99.90;;;;;;4990850;28;20038;-84
2023/09/03 11:12:52;;;;;;;14.02;8.70;;;26.20;99.90;;;;;;4984207;28;20100;-84
2023/09/03 11:15:18;;;;;;;7.10;2.60;;;26.20;99.90;;;;;;4971546;28;20031;-84
2023/09/03 11:17:50;;;;;;;8.90;4.55;;;26.10;99.90;;;;;;4971570;28;20027;-84
2023/09/03 11:20:33;;;;;;;12.48;6.00;;;26.40;99.90;;;;;;4971580;28;20027;-85
2023/09/03 11:22:59;;;;;;;4.13;2.90;;;26.50;99.90;;;;;;4971749;28;20026;-84
2023/09/03 11:25:36;;;;;;;7.75;3.95;;;26.50;99.90;;;;;;4971706;28;20059;-84
2023/09/03 11:28:03;;;;;;;9.38;3.28;;;26.50;99.90;;;;;;4971337;28;20046;-84
2023/09/03 11:30:30;;;;;;;9.70;3.63;;;26.60;99.90;;;;;;4990602;28;20034;-84
2023/09/03 11:32:56;;;;;;;5.20;3.33;;;26.70;99.90;;;;;;4986681;28;20381;-84
2023/09/03 11:35:22;;;;;;;4.68;2.50;;;26.70;99.90;;;;;;4984594;28;20026;-83
2023/09/03 11:37:50;;;;;;;6.18;2.97;;;26.70;99.90;;;;;;4971285;28;20027;-84
2023/09/03 11:40:16;;;;;;;;;;;26.70;99.90;;;;;;4974266;28;20470;-84
2023/09/03 11:42:43;;;;;;;4.45;2.65;;;26.80;99.90;;;;;;4989455;28;19996;-84
2023/09/03 11:45:11;;;;;;;2.70;2.20;;;26.70;99.90;;;;;;4989059;28;20061;-84
2023/09/03 11:47:50;;;;;;;3.28;2.30;;;26.80;99.90;;;;;;4970503;28;20031;-85
2023/09/03 11:50:17;;;;;;;3.15;2.38;;;26.70;99.90;;;;;;4971291;28;20442;-84
2023/09/03 11:53:10;;;;;;;8.27;2.80;;;26.60;99.90;;;;;;4970914;28;20371;-84
2023/09/03 11:55:42;;;;;;;2.95;2.30;;;26.60;99.90;;;;;;4970691;28;20043;-84
2023/09/03 11:58:10;;;;;;;4.68;2.65;;;26.70;99.90;;;;;;4986721;28;20023;-85
2023/09/03 12:00:37;;;;;;;3.35;2.42;;;26.90;99.90;;;;;;4979165;28;20065;-83
2023/09/03 12:03:03;;;;;;;5.88;2.50;;;27.00;99.90;;;;;;4974091;28;20046;-83
2023/09/03 12:05:29;;;;;;;4.25;2.20;;;26.90;99.90;;;;;;4969809;28;20550;-83
2023/09/03 12:08:01;;;;;;;5.55;2.97;;;26.80;99.90;;;;;;4971103;28;20058;-83
2023/09/03 12:10:27;;;;;;;3.83;2.50;;;26.80;99.90;;;;;;4970171;28;20541;-83
2023/09/03 12:12:53;;;;;;;5.25;2.72;;;26.90;99.90;;;;;;4970864;28;20038;-83
2023/09/03 12:15:20;;;;;;;2.92;2.40;;;26.90;99.90;;;;;;4968471;28;20026;-83
2023/09/03 12:17:46;;;;;;;6.20;2.40;;;27.10;99.90;;;;;;4976881;28;20020;-83
2023/09/03 12:20:31;;;;;;;4.07;2.38;;;27.10;99.90;;;;;;5000353;28;20281;-83
2023/09/03 12:23:06;;;;;;;6.55;2.33;;;27.20;99.90;;;;;;4988055;28;20378;-84
2023/09/03 12:25:35;;;;;;;5.65;2.50;;;27.30;99.90;;;;;;4989375;28;20486;-84
2023/09/03 12:28:01;;;;;;;5.13;2.42;;;27.20;99.90;;;;;;4989354;28;20379;-84
2023/09/03 12:30:47;;;;;;;7.45;2.40;;;27.20;99.90;;;;;;4988891;28;20046;-84
2023/09/03 12:33:12;;;;;;;3.60;2.50;;;27.10;99.90;;;;;;4968825;28;20031;-84
2023/09/03 12:35:38;;;;;;;3.83;2.50;;;27.20;99.90;;;;;;4979903;28;20026;-84
2023/09/03 12:38:04;;;;;;;4.55;2.60;;;27.30;99.90;;;;;;4988504;28;20023;-84
2023/09/03 12:40:30;;;;;;;6.07;2.33;;;27.30;99.90;;;;;;4989354;28;20022;-83
2023/09/03 12:42:56;;;;;;;6.32;2.40;;;27.20;99.90;;;;;;4988287;28;20032;-84
2023/09/03 12:45:22;;;;;;;4.32;2.30;;;27.20;99.90;;;;;;4987906;28;20375;-84